sensor_id;sensor_type;location;lat;lon;timestamp;pressure;altitude;pressure_sealevel;temperature;humidity
31595;BME280;18200;48.726;8.892;2022-12-18T00:03:01;97765.00;;;-3.95;44.14
31595;BME280;18200;48.726;8.892;2022-12-18T00:07:02;97780.75;;;-3.95;43.83
31595;BME280;18200;48.726;8.892;2022-12-18T00:11:06;97770.81;;;-4.10;44.51
31595;BME280;18200;48.726;8.892;2022-12-18T00:15:07;97758.97;;;-3.96;43.55
31595;BME280;18200;48.726;8.892;2022-12-18T00:19:08;97760.63;;;-4.06;44.01
31595;BME280;18200;48.726;8.892;2022-12-18T00:23:10;97762.97;;;-4.21;44.65
31595;BME280;18200;48.726;8.892;2022-12-18T00:27:10;97774.06;;;-4.76;44.40
31595;BME280;18200;48.726;8.892;2022-12-18T00:31:12;97770.06;;;-5.18;45.68
31595;BME280;18200;48.726;8.892;2022-12-18T00:35:12;97772.66;;;-4.66;44.93
31595;BME280;18200;48.726;8.892;2022-12-18T00:39:13;97770.31;;;-4.51;45.70
31595;BME280;18200;48.726;8.892;2022-12-18T00:43:13;97762.53;;;-4.46;45.16
31595;BME280;18200;48.726;8.892;2022-12-18T00:47:13;97768.91;;;-4.42;44.65
31595;BME280;18200;48.726;8.892;2022-12-18T00:51:13;97781.47;;;-3.83;43.65
31595;BME280;18200;48.726;8.892;2022-12-18T00:55:14;97780.78;;;-4.51;42.89
31595;BME280;18200;48.726;8.892;2022-12-18T00:59:15;97784.56;;;-4.47;43.69
31595;BME280;18200;48.726;8.892;2022-12-18T01:03:16;97777.03;;;-4.27;43.17
31595;BME280;18200;48.726;8.892;2022-12-18T01:07:17;97764.03;;;-4.50;43.31
31595;BME280;18200;48.726;8.892;2022-12-18T01:11:18;97770.13;;;-4.61;43.27
31595;BME280;18200;48.726;8.892;2022-12-18T01:15:19;97769.94;;;-4.72;45.00
31595;BME280;18200;48.726;8.892;2022-12-18T01:19:19;97775.25;;;-4.38;43.31
31595;BME280;18200;48.726;8.892;2022-12-18T01:23:20;97771.34;;;-4.24;43.83
31595;BME280;18200;48.726;8.892;2022-12-18T01:27:21;97766.25;;;-4.14;43.77
31595;BME280;18200;48.726;8.892;2022-12-18T01:31:25;97765.13;;;-5.03;43.84
31595;BME280;18200;48.726;8.892;2022-12-18T01:35:25;97777.56;;;-5.10;44.06
31595;BME280;18200;48.726;8.892;2022-12-18T01:39:27;97784.00;;;-4.89;45.07
31595;BME280;18200;48.726;8.892;2022-12-18T01:47:52;97786.34;;;-4.64;45.61
31595;BME280;18200;48.726;8.892;2022-12-18T01:51:52;97772.84;;;-4.56;45.08
31595;BME280;18200;48.726;8.892;2022-12-18T01:55:53;97759.19;;;-4.30;44.52
31595;BME280;18200;48.726;8.892;2022-12-18T01:59:56;97770.97;;;-5.47;45.79
31595;BME280;18200;48.726;8.892;2022-12-18T02:08:30;97778.16;;;-4.23;44.32
31595;BME280;18200;48.726;8.892;2022-12-18T02:21:07;97772.00;;;-4.74;44.66
31595;BME280;18200;48.726;8.892;2022-12-18T02:29:15;97777.69;;;-4.77;45.18
31595;BME280;18200;48.726;8.892;2022-12-18T02:33:16;97781.34;;;-4.78;44.69
31595;BME280;18200;48.726;8.892;2022-12-18T02:37:19;97775.09;;;-4.48;45.10
31595;BME280;18200;48.726;8.892;2022-12-18T02:41:22;97783.09;;;-4.95;44.79
31595;BME280;18200;48.726;8.892;2022-12-18T02:45:23;97776.94;;;-5.00;45.47
31595;BME280;18200;48.726;8.892;2022-12-18T02:53:36;97783.66;;;-4.53;44.45
31595;BME280;18200;48.726;8.892;2022-12-18T03:02:20;97765.72;;;-4.44;44.08
31595;BME280;18200;48.726;8.892;2022-12-18T03:06:44;97771.78;;;-4.27;44.46
31595;BME280;18200;48.726;8.892;2022-12-18T03:10:45;97780.44;;;-3.99;44.10
31595;BME280;18200;48.726;8.892;2022-12-18T03:19:03;97792.28;;;-4.81;45.51
31595;BME280;18200;48.726;8.892;2022-12-18T03:23:07;97787.91;;;-4.63;44.56
31595;BME280;18200;48.726;8.892;2022-12-18T03:27:10;97792.28;;;-4.81;45.70
31595;BME280;18200;48.726;8.892;2022-12-18T03:31:12;97799.31;;;-4.69;45.48
31595;BME280;18200;48.726;8.892;2022-12-18T03:35:14;97785.13;;;-4.45;44.80
31595;BME280;18200;48.726;8.892;2022-12-18T03:39:17;97783.78;;;-4.59;45.50
31595;BME280;18200;48.726;8.892;2022-12-18T03:47:50;97794.75;;;-4.62;44.88
31595;BME280;18200;48.726;8.892;2022-12-18T03:51:57;97782.78;;;-4.30;45.09
31595;BME280;18200;48.726;8.892;2022-12-18T03:56:00;97779.06;;;-4.18;45.98
31595;BME280;18200;48.726;8.892;2022-12-18T04:00:08;97781.69;;;-4.01;46.67
31595;BME280;18200;48.726;8.892;2022-12-18T04:04:17;97780.19;;;-3.97;46.17
31595;BME280;18200;48.726;8.892;2022-12-18T04:08:19;97775.94;;;-4.15;46.56
31595;BME280;18200;48.726;8.892;2022-12-18T04:12:28;97767.31;;;-4.43;46.18
31595;BME280;18200;48.726;8.892;2022-12-18T04:16:30;97770.56;;;-4.08;47.12
31595;BME280;18200;48.726;8.892;2022-12-18T04:20:34;97786.31;;;-3.42;46.90
31595;BME280;18200;48.726;8.892;2022-12-18T04:24:34;97789.25;;;-3.00;45.95
31595;BME280;18200;48.726;8.892;2022-12-18T04:28:58;97776.09;;;-2.78;47.69
31595;BME280;18200;48.726;8.892;2022-12-18T04:32:58;97791.09;;;-3.17;46.76
31595;BME280;18200;48.726;8.892;2022-12-18T04:36:59;97791.88;;;-2.78;46.56
31595;BME280;18200;48.726;8.892;2022-12-18T04:40:59;97777.72;;;-2.02;47.06
31595;BME280;18200;48.726;8.892;2022-12-18T04:45:01;97776.06;;;-2.83;45.40
31595;BME280;18200;48.726;8.892;2022-12-18T04:49:01;97772.13;;;-2.81;47.16
31595;BME280;18200;48.726;8.892;2022-12-18T04:53:01;97775.13;;;-3.16;45.99
31595;BME280;18200;48.726;8.892;2022-12-18T04:57:02;97772.75;;;-2.74;45.22
31595;BME280;18200;48.726;8.892;2022-12-18T05:01:02;97779.28;;;-3.20;46.23
31595;BME280;18200;48.726;8.892;2022-12-18T05:05:03;97772.84;;;-2.85;45.72
31595;BME280;18200;48.726;8.892;2022-12-18T05:09:03;97774.47;;;-2.84;45.65
31595;BME280;18200;48.726;8.892;2022-12-18T05:13:04;97774.84;;;-2.49;45.17
31595;BME280;18200;48.726;8.892;2022-12-18T05:17:04;97775.69;;;-2.22;45.78
31595;BME280;18200;48.726;8.892;2022-12-18T05:21:04;97771.78;;;-1.51;47.21
31595;BME280;18200;48.726;8.892;2022-12-18T05:25:05;97776.72;;;-1.65;46.45
31595;BME280;18200;48.726;8.892;2022-12-18T05:29:05;97776.53;;;-1.85;46.22
31595;BME280;18200;48.726;8.892;2022-12-18T05:33:05;97782.25;;;-1.24;46.56
31595;BME280;18200;48.726;8.892;2022-12-18T05:37:06;97783.28;;;-1.30;46.05
31595;BME280;18200;48.726;8.892;2022-12-18T05:41:06;97770.19;;;-1.89;47.83
31595;BME280;18200;48.726;8.892;2022-12-18T05:45:07;97767.63;;;-1.79;46.24
31595;BME280;18200;48.726;8.892;2022-12-18T05:49:07;97767.31;;;-1.50;46.50
31595;BME280;18200;48.726;8.892;2022-12-18T05:53:08;97760.53;;;-1.78;45.69
31595;BME280;18200;48.726;8.892;2022-12-18T05:57:08;97769.97;;;-1.50;45.78
31595;BME280;18200;48.726;8.892;2022-12-18T06:01:09;97777.31;;;-1.52;46.17
31595;BME280;18200;48.726;8.892;2022-12-18T06:05:10;97765.84;;;-1.36;45.27
31595;BME280;18200;48.726;8.892;2022-12-18T06:09:11;97771.66;;;-1.34;46.16
31595;BME280;18200;48.726;8.892;2022-12-18T06:13:11;97779.09;;;-1.26;46.41
31595;BME280;18200;48.726;8.892;2022-12-18T06:17:12;97787.59;;;-1.14;45.65
31595;BME280;18200;48.726;8.892;2022-12-18T06:21:12;97792.97;;;-0.94;46.68
31595;BME280;18200;48.726;8.892;2022-12-18T06:25:13;97794.06;;;-0.85;45.31
31595;BME280;18200;48.726;8.892;2022-12-18T06:29:13;97800.94;;;-0.84;46.52
31595;BME280;18200;48.726;8.892;2022-12-18T06:33:14;97801.06;;;-0.49;45.83
31595;BME280;18200;48.726;8.892;2022-12-18T06:37:14;97796.00;;;-0.65;46.28
31595;BME280;18200;48.726;8.892;2022-12-18T06:41:19;97797.88;;;-0.61;45.86
31595;BME280;18200;48.726;8.892;2022-12-18T06:45:20;97800.97;;;-0.79;46.05
31595;BME280;18200;48.726;8.892;2022-12-18T06:49:20;97806.22;;;-0.84;47.14
31595;BME280;18200;48.726;8.892;2022-12-18T06:53:20;97814.28;;;-0.54;46.39
31595;BME280;18200;48.726;8.892;2022-12-18T06:57:21;97812.06;;;-0.72;46.51
31595;BME280;18200;48.726;8.892;2022-12-18T07:01:23;97819.16;;;-1.24;46.35
31595;BME280;18200;48.726;8.892;2022-12-18T07:05:23;97832.50;;;-0.99;46.59
31595;BME280;18200;48.726;8.892;2022-12-18T07:09:24;97837.28;;;-0.96;46.85
31595;BME280;18200;48.726;8.892;2022-12-18T07:13:24;97834.91;;;-1.34;47.18
31595;BME280;18200;48.726;8.892;2022-12-18T07:17:24;97830.34;;;-1.07;45.83
31595;BME280;18200;48.726;8.892;2022-12-18T07:21:25;97828.47;;;-1.12;45.99
31595;BME280;18200;48.726;8.892;2022-12-18T07:25:25;97839.28;;;-1.13;45.40
31595;BME280;18200;48.726;8.892;2022-12-18T07:29:25;97837.75;;;-0.99;45.32
31595;BME280;18200;48.726;8.892;2022-12-18T07:33:26;97834.56;;;-1.06;45.37
31595;BME280;18200;48.726;8.892;2022-12-18T07:37:26;97825.75;;;-0.80;45.72
31595;BME280;18200;48.726;8.892;2022-12-18T07:41:26;97836.84;;;-0.78;44.45
31595;BME280;18200;48.726;8.892;2022-12-18T07:45:26;97837.50;;;-1.03;44.99
31595;BME280;18200;48.726;8.892;2022-12-18T07:49:27;97839.38;;;-0.98;44.71
31595;BME280;18200;48.726;8.892;2022-12-18T07:53:27;97849.81;;;-1.08;44.62
31595;BME280;18200;48.726;8.892;2022-12-18T07:57:28;97844.56;;;-1.08;45.09
31595;BME280;18200;48.726;8.892;2022-12-18T08:01:28;97849.81;;;-1.08;45.45
31595;BME280;18200;48.726;8.892;2022-12-18T08:05:29;97846.84;;;-0.80;45.01
31595;BME280;18200;48.726;8.892;2022-12-18T08:09:29;97844.16;;;-0.85;45.38
31595;BME280;18200;48.726;8.892;2022-12-18T08:13:29;97841.06;;;-0.77;44.53
31595;BME280;18200;48.726;8.892;2022-12-18T08:17:29;97846.47;;;-0.47;44.56
31595;BME280;18200;48.726;8.892;2022-12-18T08:21:30;97847.34;;;-0.36;44.41
31595;BME280;18200;48.726;8.892;2022-12-18T08:25:31;97844.78;;;-0.73;43.64
31595;BME280;18200;48.726;8.892;2022-12-18T08:29:31;97844.75;;;-0.78;44.87
31595;BME280;18200;48.726;8.892;2022-12-18T08:33:32;97839.59;;;-0.58;44.72
31595;BME280;18200;48.726;8.892;2022-12-18T08:37:32;97848.34;;;-0.42;45.50
31595;BME280;18200;48.726;8.892;2022-12-18T08:41:32;97849.66;;;-0.45;46.13
31595;BME280;18200;48.726;8.892;2022-12-18T08:45:33;97842.50;;;-0.54;46.01
31595;BME280;18200;48.726;8.892;2022-12-18T08:49:34;97835.91;;;-0.47;46.06
31595;BME280;18200;48.726;8.892;2022-12-18T08:53:35;97826.84;;;0.01;46.33
31595;BME280;18200;48.726;8.892;2022-12-18T08:57:35;97827.66;;;0.37;46.27
31595;BME280;18200;48.726;8.892;2022-12-18T09:01:35;97825.59;;;0.49;47.00
31595;BME280;18200;48.726;8.892;2022-12-18T09:05:36;97837.75;;;0.55;47.09
31595;BME280;18200;48.726;8.892;2022-12-18T09:09:36;97825.16;;;1.41;46.40
31595;BME280;18200;48.726;8.892;2022-12-18T09:13:37;97819.25;;;1.64;46.51
31595;BME280;18200;48.726;8.892;2022-12-18T09:17:37;97818.13;;;1.80;46.42
31595;BME280;18200;48.726;8.892;2022-12-18T09:21:37;97810.69;;;2.26;45.85
31595;BME280;18200;48.726;8.892;2022-12-18T09:25:39;97806.81;;;2.47;46.13
31595;BME280;18200;48.726;8.892;2022-12-18T09:29:42;97807.19;;;2.64;45.78
31595;BME280;18200;48.726;8.892;2022-12-18T09:33:43;97800.94;;;2.84;45.15
31595;BME280;18200;48.726;8.892;2022-12-18T09:37:45;97799.66;;;2.09;47.83
31595;BME280;18200;48.726;8.892;2022-12-18T09:45:50;97803.69;;;2.40;47.58
31595;BME280;18200;48.726;8.892;2022-12-18T09:49:53;97804.44;;;3.32;45.59
31595;BME280;18200;48.726;8.892;2022-12-18T09:53:59;97803.78;;;2.92;46.25
31595;BME280;18200;48.726;8.892;2022-12-18T09:58:06;97809.50;;;3.28;45.43
31595;BME280;18200;48.726;8.892;2022-12-18T10:02:18;97798.69;;;3.67;45.36
31595;BME280;18200;48.726;8.892;2022-12-18T10:14:44;97801.75;;;3.98;44.52
31595;BME280;18200;48.726;8.892;2022-12-18T10:22:57;97807.25;;;3.64;45.99
31595;BME280;18200;48.726;8.892;2022-12-18T10:27:14;97805.00;;;3.52;46.40
31595;BME280;18200;48.726;8.892;2022-12-18T10:31:19;97799.44;;;4.28;45.71
31595;BME280;18200;48.726;8.892;2022-12-18T10:35:24;97804.72;;;4.65;44.40
31595;BME280;18200;48.726;8.892;2022-12-18T10:39:25;97809.94;;;4.38;45.67
31595;BME280;18200;48.726;8.892;2022-12-18T10:43:27;97809.97;;;5.16;43.86
31595;BME280;18200;48.726;8.892;2022-12-18T10:47:28;97805.53;;;4.80;44.68
31595;BME280;18200;48.726;8.892;2022-12-18T10:51:29;97803.50;;;4.90;44.06
31595;BME280;18200;48.726;8.892;2022-12-18T10:55:34;97798.19;;;5.04;44.42
31595;BME280;18200;48.726;8.892;2022-12-18T10:59:38;97788.44;;;4.99;44.70
31595;BME280;18200;48.726;8.892;2022-12-18T11:07:50;97776.97;;;4.99;44.76
31595;BME280;18200;48.726;8.892;2022-12-18T11:11:53;97782.94;;;5.50;43.88
31595;BME280;18200;48.726;8.892;2022-12-18T11:15:55;97775.59;;;5.69;43.94
31595;BME280;18200;48.726;8.892;2022-12-18T11:19:56;97781.94;;;5.32;44.46
31595;BME280;18200;48.726;8.892;2022-12-18T11:23:57;97778.88;;;5.66;43.79
31595;BME280;18200;48.726;8.892;2022-12-18T11:27:59;97778.56;;;5.13;45.23
31595;BME280;18200;48.726;8.892;2022-12-18T11:32:13;97771.06;;;5.56;44.35
31595;BME280;18200;48.726;8.892;2022-12-18T11:36:20;97767.50;;;5.88;43.94
31595;BME280;18200;48.726;8.892;2022-12-18T11:40:22;97766.50;;;5.97;43.62
31595;BME280;18200;48.726;8.892;2022-12-18T11:44:26;97756.00;;;6.59;42.64
31595;BME280;18200;48.726;8.892;2022-12-18T11:48:38;97754.75;;;6.87;42.09
31595;BME280;18200;48.726;8.892;2022-12-18T11:52:41;97750.91;;;6.26;43.14
31595;BME280;18200;48.726;8.892;2022-12-18T12:01:05;97751.09;;;7.14;42.10
31595;BME280;18200;48.726;8.892;2022-12-18T12:09:23;97736.38;;;8.07;39.45
31595;BME280;18200;48.726;8.892;2022-12-18T12:13:34;97736.88;;;7.35;40.94
31595;BME280;18200;48.726;8.892;2022-12-18T12:17:38;97729.00;;;7.30;41.19
31595;BME280;18200;48.726;8.892;2022-12-18T12:21:44;97737.94;;;7.91;41.02
31595;BME280;18200;48.726;8.892;2022-12-18T12:25:49;97721.69;;;7.61;40.38
31595;BME280;18200;48.726;8.892;2022-12-18T12:30:11;97719.22;;;8.16;40.13
31595;BME280;18200;48.726;8.892;2022-12-18T12:34:17;97733.41;;;8.34;39.83
31595;BME280;18200;48.726;8.892;2022-12-18T12:38:41;97738.59;;;8.05;40.19
31595;BME280;18200;48.726;8.892;2022-12-18T12:42:42;97742.19;;;8.09;40.72
31595;BME280;18200;48.726;8.892;2022-12-18T12:47:19;97752.47;;;8.41;40.28
31595;BME280;18200;48.726;8.892;2022-12-18T12:51:21;97745.66;;;8.09;40.28
31595;BME280;18200;48.726;8.892;2022-12-18T12:55:23;97750.53;;;8.50;40.36
31595;BME280;18200;48.726;8.892;2022-12-18T12:59:31;97764.03;;;7.76;41.88
31595;BME280;18200;48.726;8.892;2022-12-18T13:12:03;97764.09;;;8.45;39.35
31595;BME280;18200;48.726;8.892;2022-12-18T13:16:23;97754.34;;;8.32;40.22
31595;BME280;18200;48.726;8.892;2022-12-18T13:20:24;97755.19;;;7.67;40.68
31595;BME280;18200;48.726;8.892;2022-12-18T13:24:32;97747.09;;;8.07;40.62
31595;BME280;18200;48.726;8.892;2022-12-18T13:32:33;97733.97;;;8.74;39.76
31595;BME280;18200;48.726;8.892;2022-12-18T13:36:34;97726.44;;;8.16;40.06
31595;BME280;18200;48.726;8.892;2022-12-18T13:44:47;97731.44;;;7.57;41.06
31595;BME280;18200;48.726;8.892;2022-12-18T13:48:49;97728.50;;;8.02;40.74
31595;BME280;18200;48.726;8.892;2022-12-18T13:52:50;97731.34;;;8.48;39.08
31595;BME280;18200;48.726;8.892;2022-12-18T13:56:51;97733.84;;;8.02;40.83
31595;BME280;18200;48.726;8.892;2022-12-18T14:00:51;97737.63;;;8.52;40.20
31595;BME280;18200;48.726;8.892;2022-12-18T14:04:52;97737.63;;;8.35;39.83
31595;BME280;18200;48.726;8.892;2022-12-18T14:08:52;97724.72;;;8.20;40.02
31595;BME280;18200;48.726;8.892;2022-12-18T14:12:53;97727.69;;;7.75;41.40
31595;BME280;18200;48.726;8.892;2022-12-18T14:16:56;97730.69;;;8.00;40.38
31595;BME280;18200;48.726;8.892;2022-12-18T14:20:57;97731.53;;;7.35;42.14
31595;BME280;18200;48.726;8.892;2022-12-18T14:25:13;97734.75;;;7.71;42.03
31595;BME280;18200;48.726;8.892;2022-12-18T14:33:25;97747.00;;;7.55;41.28
31595;BME280;18200;48.726;8.892;2022-12-18T14:37:26;97740.16;;;7.24;42.06
31595;BME280;18200;48.726;8.892;2022-12-18T14:41:27;97734.88;;;7.49;41.35
31595;BME280;18200;48.726;8.892;2022-12-18T14:45:35;97747.31;;;7.62;41.43
31595;BME280;18200;48.726;8.892;2022-12-18T14:49:37;97748.06;;;6.98;42.36
31595;BME280;18200;48.726;8.892;2022-12-18T14:53:43;97745.16;;;7.17;41.97
31595;BME280;18200;48.726;8.892;2022-12-18T14:57:44;97751.41;;;7.12;42.38
31595;BME280;18200;48.726;8.892;2022-12-18T15:05:49;97750.50;;;6.86;42.61
31595;BME280;18200;48.726;8.892;2022-12-18T15:14:28;97744.91;;;6.96;42.42
31595;BME280;18200;48.726;8.892;2022-12-18T15:18:32;97749.56;;;6.60;43.12
31595;BME280;18200;48.726;8.892;2022-12-18T15:22:34;97742.84;;;6.40;43.88
31595;BME280;18200;48.726;8.892;2022-12-18T15:26:36;97745.25;;;6.50;44.18
31595;BME280;18200;48.726;8.892;2022-12-18T15:30:37;97749.81;;;6.28;43.83
31595;BME280;18200;48.726;8.892;2022-12-18T15:34:38;97752.03;;;6.12;44.84
31595;BME280;18200;48.726;8.892;2022-12-18T15:38:39;97751.31;;;5.98;44.43
31595;BME280;18200;48.726;8.892;2022-12-18T15:42:40;97752.50;;;5.78;44.59
31595;BME280;18200;48.726;8.892;2022-12-18T15:46:59;97745.22;;;5.70;45.26
31595;BME280;18200;48.726;8.892;2022-12-18T15:50:59;97751.53;;;5.74;45.31
31595;BME280;18200;48.726;8.892;2022-12-18T15:55:00;97753.75;;;5.45;45.37
31595;BME280;18200;48.726;8.892;2022-12-18T15:59:20;97747.97;;;5.65;45.37
31595;BME280;18200;48.726;8.892;2022-12-18T16:03:20;97749.00;;;5.42;45.24
31595;BME280;18200;48.726;8.892;2022-12-18T16:07:21;97756.81;;;5.38;45.49
31595;BME280;18200;48.726;8.892;2022-12-18T16:11:23;97752.72;;;5.41;45.25
31595;BME280;18200;48.726;8.892;2022-12-18T16:15:37;97759.16;;;5.40;45.34
31595;BME280;18200;48.726;8.892;2022-12-18T16:19:38;97751.97;;;5.40;45.59
31595;BME280;18200;48.726;8.892;2022-12-18T16:23:38;97756.88;;;5.20;45.62
31595;BME280;18200;48.726;8.892;2022-12-18T16:27:38;97754.81;;;5.44;45.14
31595;BME280;18200;48.726;8.892;2022-12-18T16:31:39;97754.72;;;5.08;45.48
31595;BME280;18200;48.726;8.892;2022-12-18T16:35:39;97759.25;;;5.35;45.22
31595;BME280;18200;48.726;8.892;2022-12-18T16:39:40;97754.59;;;5.13;45.05
31595;BME280;18200;48.726;8.892;2022-12-18T16:43:40;97757.09;;;5.23;45.03
31595;BME280;18200;48.726;8.892;2022-12-18T16:47:41;97757.28;;;5.27;45.31
31595;BME280;18200;48.726;8.892;2022-12-18T16:51:41;97749.69;;;5.34;45.13
31595;BME280;18200;48.726;8.892;2022-12-18T16:55:42;97747.41;;;5.41;44.47
31595;BME280;18200;48.726;8.892;2022-12-18T16:59:42;97730.75;;;5.22;44.91
31595;BME280;18200;48.726;8.892;2022-12-18T17:03:42;97737.56;;;5.28;45.47
31595;BME280;18200;48.726;8.892;2022-12-18T17:07:43;97742.59;;;5.43;44.50
31595;BME280;18200;48.726;8.892;2022-12-18T17:11:43;97737.94;;;5.08;45.38
31595;BME280;18200;48.726;8.892;2022-12-18T17:15:43;97729.47;;;5.33;45.39
31595;BME280;18200;48.726;8.892;2022-12-18T17:19:43;97718.63;;;5.43;45.33
31595;BME280;18200;48.726;8.892;2022-12-18T17:23:44;97714.84;;;5.44;45.32
31595;BME280;18200;48.726;8.892;2022-12-18T17:28:02;97716.53;;;5.40;45.18
31595;BME280;18200;48.726;8.892;2022-12-18T17:32:02;97715.66;;;5.44;45.21
31595;BME280;18200;48.726;8.892;2022-12-18T17:36:02;97715.31;;;5.60;45.11
31595;BME280;18200;48.726;8.892;2022-12-18T17:40:03;97714.47;;;5.37;45.68
31595;BME280;18200;48.726;8.892;2022-12-18T17:44:04;97725.09;;;5.50;45.64
31595;BME280;18200;48.726;8.892;2022-12-18T17:48:05;97713.34;;;5.65;44.79
31595;BME280;18200;48.726;8.892;2022-12-18T17:52:05;97730.06;;;5.30;45.97
31595;BME280;18200;48.726;8.892;2022-12-18T17:56:06;97732.28;;;5.64;45.20
31595;BME280;18200;48.726;8.892;2022-12-18T18:00:07;97715.41;;;5.68;45.26
31595;BME280;18200;48.726;8.892;2022-12-18T18:04:09;97714.31;;;5.69;45.55
31595;BME280;18200;48.726;8.892;2022-12-18T18:08:09;97709.66;;;5.88;44.75
31595;BME280;18200;48.726;8.892;2022-12-18T18:12:10;97709.25;;;5.81;45.06
31595;BME280;18200;48.726;8.892;2022-12-18T18:16:33;97705.81;;;5.67;44.93
31595;BME280;18200;48.726;8.892;2022-12-18T18:20:38;97697.44;;;5.60;45.56
31595;BME280;18200;48.726;8.892;2022-12-18T18:24:38;97697.25;;;5.70;46.06
31595;BME280;18200;48.726;8.892;2022-12-18T18:28:38;97698.00;;;5.84;45.42
31595;BME280;18200;48.726;8.892;2022-12-18T18:32:39;97714.78;;;5.71;45.82
31595;BME280;18200;48.726;8.892;2022-12-18T18:36:39;97695.88;;;5.59;46.77
31595;BME280;18200;48.726;8.892;2022-12-18T18:40:40;97698.69;;;5.27;47.40
31595;BME280;18200;48.726;8.892;2022-12-18T18:44:41;97707.34;;;5.60;46.48
31595;BME280;18200;48.726;8.892;2022-12-18T18:48:41;97716.38;;;5.72;45.63
31595;BME280;18200;48.726;8.892;2022-12-18T18:52:41;97715.03;;;5.97;45.67
31595;BME280;18200;48.726;8.892;2022-12-18T18:56:42;97715.34;;;5.46;46.33
31595;BME280;18200;48.726;8.892;2022-12-18T19:00:42;97693.38;;;5.76;46.41
31595;BME280;18200;48.726;8.892;2022-12-18T19:04:42;97691.28;;;5.87;46.43
31595;BME280;18200;48.726;8.892;2022-12-18T19:08:43;97682.53;;;6.08;45.54
31595;BME280;18200;48.726;8.892;2022-12-18T19:12:45;97677.75;;;5.83;45.82
31595;BME280;18200;48.726;8.892;2022-12-18T19:17:04;97664.75;;;6.04;46.36
31595;BME280;18200;48.726;8.892;2022-12-18T19:21:05;97667.59;;;5.85;46.52
31595;BME280;18200;48.726;8.892;2022-12-18T19:25:06;97669.03;;;6.36;45.93
31595;BME280;18200;48.726;8.892;2022-12-18T19:29:07;97661.78;;;6.28;45.84
31595;BME280;18200;48.726;8.892;2022-12-18T19:33:07;97653.66;;;6.10;46.80
31595;BME280;18200;48.726;8.892;2022-12-18T19:37:08;97654.88;;;6.04;46.37
31595;BME280;18200;48.726;8.892;2022-12-18T19:41:08;97652.63;;;6.51;45.56
31595;BME280;18200;48.726;8.892;2022-12-18T19:45:09;97651.94;;;6.37;45.47
31595;BME280;18200;48.726;8.892;2022-12-18T19:49:09;97647.44;;;6.85;45.65
31595;BME280;18200;48.726;8.892;2022-12-18T19:53:10;97632.03;;;6.82;45.68
31595;BME280;18200;48.726;8.892;2022-12-18T19:57:10;97627.50;;;6.91;45.15
31595;BME280;18200;48.726;8.892;2022-12-18T20:01:15;97633.63;;;6.83;44.87
31595;BME280;18200;48.726;8.892;2022-12-18T20:05:15;97634.22;;;6.80;45.22
31595;BME280;18200;48.726;8.892;2022-12-18T20:09:16;97630.06;;;6.57;45.80
31595;BME280;18200;48.726;8.892;2022-12-18T20:13:16;97618.09;;;6.93;45.19
31595;BME280;18200;48.726;8.892;2022-12-18T20:17:17;97608.69;;;6.57;46.08
31595;BME280;18200;48.726;8.892;2022-12-18T20:21:17;97611.38;;;6.96;45.26
31595;BME280;18200;48.726;8.892;2022-12-18T20:25:17;97606.91;;;6.83;46.20
31595;BME280;18200;48.726;8.892;2022-12-18T20:29:18;97617.06;;;7.20;44.91
31595;BME280;18200;48.726;8.892;2022-12-18T20:33:18;97623.44;;;6.93;45.08
31595;BME280;18200;48.726;8.892;2022-12-18T20:37:18;97615.53;;;7.36;45.08
31595;BME280;18200;48.726;8.892;2022-12-18T20:41:19;97612.19;;;7.39;43.96
31595;BME280;18200;48.726;8.892;2022-12-18T20:45:20;97599.47;;;7.36;45.01
31595;BME280;18200;48.726;8.892;2022-12-18T20:49:20;97606.88;;;7.65;44.54
31595;BME280;18200;48.726;8.892;2022-12-18T20:53:20;97602.78;;;7.76;43.37
31595;BME280;18200;48.726;8.892;2022-12-18T20:57:21;97614.53;;;7.15;44.29
31595;BME280;18200;48.726;8.892;2022-12-18T21:01:22;97615.81;;;7.43;44.22
31595;BME280;18200;48.726;8.892;2022-12-18T21:05:23;97613.47;;;7.59;44.24
31595;BME280;18200;48.726;8.892;2022-12-18T21:09:23;97606.56;;;7.58;44.24
31595;BME280;18200;48.726;8.892;2022-12-18T21:13:23;97599.16;;;7.46;44.56
31595;BME280;18200;48.726;8.892;2022-12-18T21:17:24;97602.00;;;7.67;43.64
31595;BME280;18200;48.726;8.892;2022-12-18T21:21:24;97616.94;;;7.68;43.62
31595;BME280;18200;48.726;8.892;2022-12-18T21:25:24;97603.91;;;7.49;44.64
31595;BME280;18200;48.726;8.892;2022-12-18T21:29:26;97613.94;;;7.69;43.60
31595;BME280;18200;48.726;8.892;2022-12-18T21:33:26;97596.34;;;7.86;43.90
31595;BME280;18200;48.726;8.892;2022-12-18T21:37:27;97595.06;;;7.92;43.53
31595;BME280;18200;48.726;8.892;2022-12-18T21:41:27;97599.63;;;7.74;43.78
31595;BME280;18200;48.726;8.892;2022-12-18T21:45:46;97598.38;;;7.63;44.50
31595;BME280;18200;48.726;8.892;2022-12-18T21:49:46;97591.94;;;7.72;44.50
31595;BME280;18200;48.726;8.892;2022-12-18T21:53:47;97583.72;;;7.77;44.85
31595;BME280;18200;48.726;8.892;2022-12-18T21:57:47;97582.78;;;7.91;44.14
31595;BME280;18200;48.726;8.892;2022-12-18T22:01:48;97584.84;;;7.85;43.63
31595;BME280;18200;48.726;8.892;2022-12-18T22:05:49;97580.25;;;8.03;44.91
31595;BME280;18200;48.726;8.892;2022-12-18T22:09:49;97571.63;;;7.80;44.56
31595;BME280;18200;48.726;8.892;2022-12-18T22:13:49;97584.66;;;7.81;44.31
31595;BME280;18200;48.726;8.892;2022-12-18T22:17:49;97572.91;;;7.65;44.77
31595;BME280;18200;48.726;8.892;2022-12-18T22:21:50;97577.88;;;8.01;45.18
31595;BME280;18200;48.726;8.892;2022-12-18T22:25:50;97572.06;;;7.91;45.04
31595;BME280;18200;48.726;8.892;2022-12-18T22:29:50;97570.94;;;8.09;44.71
31595;BME280;18200;48.726;8.892;2022-12-18T22:34:03;97569.31;;;8.25;44.99
31595;BME280;18200;48.726;8.892;2022-12-18T22:38:03;97577.03;;;8.18;44.77
31595;BME280;18200;48.726;8.892;2022-12-18T22:42:04;97584.34;;;8.09;44.95
31595;BME280;18200;48.726;8.892;2022-12-18T22:46:04;97573.44;;;8.14;44.52
31595;BME280;18200;48.726;8.892;2022-12-18T22:50:05;97588.53;;;8.35;43.70
31595;BME280;18200;48.726;8.892;2022-12-18T22:54:05;97587.13;;;8.21;43.96
31595;BME280;18200;48.726;8.892;2022-12-18T22:58:05;97592.03;;;8.02;44.66
31595;BME280;18200;48.726;8.892;2022-12-18T23:02:06;97594.75;;;7.84;45.21
31595;BME280;18200;48.726;8.892;2022-12-18T23:06:06;97590.69;;;7.44;46.28
31595;BME280;18200;48.726;8.892;2022-12-18T23:10:07;97592.19;;;7.97;44.94
31595;BME280;18200;48.726;8.892;2022-12-18T23:14:07;97588.44;;;7.98;45.75